Terminal Aerodrome Forecast
Issued by NWS

Home | Current Version | Previous Version | Text Only | Print | Product List | Glossary On
Versions: 1 2 3 4 5 6 7 8 9 10 11 12 13 14 15 16 17
000
FTUS45 KRIW 020525
TAFJAC
TAF
KJAC 020525Z 0206/0306 36006KT P6SM FEW110
     FM021400 VRB05KT P6SM FEW120
     FM021900 19016G26KT P6SM SCT100
     FM030000 21010KT P6SM SCT100
      AMD LTD TO CLD VIS AND WIND=

USA.gov is the U.S. government's official web portal to all federal, state and local government web resources and services.